createdAt,value
2023-05-21T00:00:21.785Z,99421.91
2023-05-21T00:02:48.423Z,99421.88
2023-05-21T00:05:17.114Z,99423.19
2023-05-21T00:07:44.489Z,99423.31
2023-05-21T00:10:11.264Z,99428.09
2023-05-21T00:12:37.850Z,99425.34
2023-05-21T00:15:04.848Z,99419.38
2023-05-21T00:17:31.465Z,99422.19
2023-05-21T00:19:58.017Z,99428.94
2023-05-21T00:22:24.554Z,99419.38
2023-05-21T00:24:51.210Z,99433.16
2023-05-21T00:27:17.992Z,99439.72
2023-05-21T00:29:44.639Z,99432.50
2023-05-21T00:32:11.387Z,99436.78
2023-05-21T00:34:38.331Z,99434.06
2023-05-21T00:37:05.174Z,99435.28
2023-05-21T00:39:31.877Z,99432.91
2023-05-21T00:41:58.409Z,99433.31
2023-05-21T00:44:25.514Z,99431.31
2023-05-21T00:46:53.755Z,99432.06
2023-05-21T00:49:22.527Z,99447.09
2023-05-21T00:51:49.663Z,99438.44
2023-05-21T00:54:16.307Z,99443.22
2023-05-21T00:56:42.977Z,99440.47
2023-05-21T00:59:09.682Z,99443.63
2023-05-21T01:01:37.333Z,99436.88
2023-05-21T01:04:04.314Z,99430.50
2023-05-21T01:06:34.598Z,99426.53
2023-05-21T01:09:05.220Z,99423.66
2023-05-21T01:11:40.985Z,99435.09
2023-05-21T01:14:09.459Z,99429.31
2023-05-21T01:16:42.397Z,99429.59
2023-05-21T01:19:14.168Z,99431.88
2023-05-21T01:21:44.861Z,99432.69
2023-05-21T01:24:11.556Z,99440.19
2023-05-21T01:26:39.037Z,99429.13
2023-05-21T01:29:15.026Z,99428.28
2023-05-21T01:32:11.282Z,99427.44
2023-05-21T01:34:48.135Z,99421.03
2023-05-21T01:37:21.727Z,99420.22
2023-05-21T01:39:52.457Z,99422.56
2023-05-21T01:42:22.563Z,99417.53
2023-05-21T01:44:55.035Z,99408.47
2023-05-21T01:47:24.306Z,99409.34
2023-05-21T01:49:52.364Z,99394.25
2023-05-21T01:52:19.366Z,99407.28
2023-05-21T01:54:45.896Z,99408.44
2023-05-21T01:57:12.447Z,99406.84
2023-05-21T01:59:39.023Z,99404.50
2023-05-21T02:02:05.886Z,99396.13
2023-05-21T02:04:32.498Z,99391.75
2023-05-21T02:06:59.010Z,99396.59
2023-05-21T02:09:25.593Z,99402.75
2023-05-21T02:11:52.112Z,99395.84
2023-05-21T02:14:18.677Z,99412.03
2023-05-21T02:16:45.327Z,99415.19
2023-05-21T02:19:12.087Z,99408.63
2023-05-21T02:21:38.668Z,99413.06
2023-05-21T02:24:05.516Z,99412.72
2023-05-21T02:26:32.114Z,99419.13
2023-05-21T02:28:58.748Z,99421.69
2023-05-21T02:31:25.495Z,99409.19
2023-05-21T02:33:52.069Z,99415.06
2023-05-21T02:36:18.872Z,99392.94
2023-05-21T02:38:45.607Z,99393.03
2023-05-21T02:41:12.439Z,99395.44
2023-05-21T02:43:39.289Z,99384.38
2023-05-21T02:46:07.329Z,99384.34
2023-05-21T02:48:33.873Z,99385.13
2023-05-21T02:51:00.483Z,99377.25
2023-05-21T02:53:27.095Z,99372.59
2023-05-21T02:55:54.829Z,99378.94
2023-05-21T02:58:23.523Z,99375.91
2023-05-21T03:00:50.084Z,99370.41
2023-05-21T03:03:16.756Z,99364.94
2023-05-21T03:05:43.365Z,99369.81
2023-05-21T03:08:09.944Z,99367.97
2023-05-21T03:10:36.490Z,99367.66
2023-05-21T03:13:06.028Z,99381.78
2023-05-21T03:15:33.450Z,99378.56
2023-05-21T03:18:00.475Z,99389.91
2023-05-21T03:20:28.202Z,99386.97
2023-05-21T03:22:55.841Z,99380.91
2023-05-21T03:25:25.175Z,99391.47
2023-05-21T03:27:52.409Z,99392.22
2023-05-21T03:30:19.122Z,99386.69
2023-05-21T03:32:47.748Z,99379.28
2023-05-21T03:35:14.331Z,99380.88
2023-05-21T03:37:41.076Z,99384.91
2023-05-21T03:40:08.244Z,99381.78
2023-05-21T03:42:34.783Z,99384.94
2023-05-21T03:45:01.429Z,99385.81
2023-05-21T03:47:28.067Z,99387.84
2023-05-21T03:49:54.650Z,99385.59
2023-05-21T03:52:21.204Z,99383.19
2023-05-21T03:54:47.758Z,99390.44
2023-05-21T03:57:14.314Z,99387.38
2023-05-21T03:59:40.902Z,99393.75
2023-05-21T04:02:07.447Z,99399.75
2023-05-21T04:04:34.103Z,99403.69
2023-05-21T04:07:00.943Z,99407.31
2023-05-21T04:09:27.812Z,99405.75
2023-05-21T04:11:54.522Z,99403.91
2023-05-21T04:14:21.518Z,99402.81
2023-05-21T04:16:49.158Z,99397.34
2023-05-21T04:19:15.858Z,99403.81
2023-05-21T04:21:45.153Z,99397.56
2023-05-21T04:24:12.027Z,99402.34
2023-05-21T04:26:42.017Z,99403.97
2023-05-21T04:29:09.983Z,99406.78
2023-05-21T04:31:36.854Z,99406.78
2023-05-21T04:34:03.620Z,99410.00
2023-05-21T04:36:30.231Z,99415.56
2023-05-21T04:38:56.857Z,99414.41
2023-05-21T04:41:23.429Z,99416.03
2023-05-21T04:43:54.980Z,99427.94
2023-05-21T04:46:25.365Z,99417.31
2023-05-21T04:48:56.889Z,99421.69
2023-05-21T04:51:25.003Z,99418.94
2023-05-21T04:53:52.050Z,99419.72
2023-05-21T04:56:18.861Z,99429.22
2023-05-21T04:58:47.867Z,99424.84
2023-05-21T05:01:16.040Z,99429.56
2023-05-21T05:03:42.708Z,99423.22
2023-05-21T05:06:09.306Z,99421.22
2023-05-21T05:08:36.149Z,99427.13
2023-05-21T05:11:03.097Z,99432.63
2023-05-21T05:13:29.712Z,99435.75
2023-05-21T05:15:57.473Z,99439.28
2023-05-21T05:18:24.197Z,99444.00
2023-05-21T05:20:50.736Z,99439.22
2023-05-21T05:23:17.256Z,99427.59
2023-05-21T05:25:43.860Z,99435.88
2023-05-21T05:28:10.753Z,99428.69
2023-05-21T05:30:37.441Z,99432.22
2023-05-21T05:33:04.243Z,99431.00
2023-05-21T05:35:31.002Z,99431.72
2023-05-21T05:37:57.724Z,99436.03
2023-05-21T05:40:24.324Z,99425.63
2023-05-21T05:42:52.698Z,99428.88
2023-05-21T05:45:19.946Z,99425.56
2023-05-21T05:47:46.933Z,99430.63
2023-05-21T05:50:13.658Z,99438.97
2023-05-21T05:52:40.232Z,99428.06
2023-05-21T05:55:09.044Z,99435.63
2023-05-21T05:57:36.095Z,99430.47
2023-05-21T06:00:03.989Z,99433.66
2023-05-21T06:02:30.664Z,99431.16
2023-05-21T06:04:58.376Z,99433.69
2023-05-21T06:07:24.951Z,99430.03
2023-05-21T06:09:51.520Z,99442.66
2023-05-21T06:12:18.160Z,99438.53
2023-05-21T06:14:46.055Z,99437.06
2023-05-21T06:17:12.766Z,99434.47
2023-05-21T06:19:39.723Z,99437.19
2023-05-21T06:22:06.257Z,99428.34
2023-05-21T06:24:32.880Z,99429.94
2023-05-21T06:26:59.425Z,99425.78
2023-05-21T06:29:25.976Z,99432.78
2023-05-21T06:31:52.522Z,99426.09
2023-05-21T06:34:19.070Z,99438.13
2023-05-21T06:36:45.882Z,99429.25
2023-05-21T06:39:12.452Z,99441.56
2023-05-21T06:41:39.024Z,99435.66
2023-05-21T06:44:06.018Z,99440.91
2023-05-21T06:46:32.667Z,99430.25
2023-05-21T06:49:01.021Z,99426.75
2023-05-21T06:51:27.595Z,99426.91
2023-05-21T06:53:54.177Z,99426.09
2023-05-21T06:56:21.985Z,99431.69
2023-05-21T06:58:48.541Z,99439.44
2023-05-21T07:01:15.336Z,99430.78
2023-05-21T07:03:41.981Z,99417.78
2023-05-21T07:06:08.614Z,99417.59
2023-05-21T07:08:35.226Z,99424.09
2023-05-21T07:11:01.836Z,99419.00
2023-05-21T07:13:29.248Z,99430.75
2023-05-21T07:15:55.998Z,99423.13
2023-05-21T07:18:22.564Z,99426.81
2023-05-21T07:20:49.147Z,99425.69
2023-05-21T07:23:15.793Z,99433.66
2023-05-21T07:25:42.366Z,99427.44
2023-05-21T07:28:09.014Z,99427.66
2023-05-21T07:30:35.577Z,99432.06
2023-05-21T07:33:02.231Z,99436.28
2023-05-21T07:35:29.208Z,99435.16
2023-05-21T07:37:55.917Z,99436.50
2023-05-21T07:40:22.557Z,99435.38
2023-05-21T07:42:49.139Z,99435.25
2023-05-21T07:45:15.773Z,99431.25
2023-05-21T07:47:43.273Z,99431.22
2023-05-21T07:50:10.778Z,99415.19
2023-05-21T07:52:37.454Z,99427.09
2023-05-21T07:55:04.343Z,99431.66
2023-05-21T07:57:30.902Z,99430.63
2023-05-21T07:59:57.437Z,99440.97
2023-05-21T08:02:24.230Z,99439.00
2023-05-21T08:04:52.601Z,99438.28
2023-05-21T08:07:20.245Z,99441.88
2023-05-21T08:09:47.141Z,99438.75
2023-05-21T08:12:15.923Z,99440.31
2023-05-21T08:14:42.733Z,99447.38
2023-05-21T08:17:10.479Z,99442.22
2023-05-21T08:19:37.357Z,99434.94
2023-05-21T08:22:04.175Z,99442.34
2023-05-21T08:24:30.832Z,99435.66
2023-05-21T08:26:57.385Z,99430.19
2023-05-21T08:29:23.960Z,99438.09
2023-05-21T08:31:50.624Z,99439.22
2023-05-21T08:34:18.656Z,99434.84
2023-05-21T08:36:46.261Z,99430.75
2023-05-21T08:39:13.257Z,99434.66
2023-05-21T08:41:40.399Z,99429.16
2023-05-21T08:44:12.590Z,99424.44
2023-05-21T08:46:40.766Z,99423.09
2023-05-21T08:49:12.805Z,99425.34
2023-05-21T08:51:39.606Z,99427.84
2023-05-21T08:54:07.378Z,99423.34
2023-05-21T08:56:35.184Z,99428.25
2023-05-21T08:59:02.612Z,99424.97
2023-05-21T09:01:29.366Z,99427.28
2023-05-21T09:04:04.870Z,99425.34
2023-05-21T09:06:40.834Z,99430.94
2023-05-21T09:09:34.456Z,99427.50
2023-05-21T09:12:00.990Z,99421.50
2023-05-21T09:14:28.418Z,99429.06
2023-05-21T09:16:55.003Z,99431.19
2023-05-21T09:19:24.834Z,99423.09
2023-05-21T09:21:52.794Z,99419.34
2023-05-21T09:24:22.666Z,99423.13
2023-05-21T09:26:49.291Z,99427.19
2023-05-21T09:29:15.921Z,99428.78
2023-05-21T09:31:45.896Z,99424.53
2023-05-21T09:34:14.148Z,99420.44
2023-05-21T09:36:40.836Z,99428.38
2023-05-21T09:39:07.535Z,99430.69
2023-05-21T09:41:36.009Z,99430.91
2023-05-21T09:44:03.359Z,99424.00
2023-05-21T09:46:42.509Z,99418.91
2023-05-21T09:49:26.388Z,99415.69
2023-05-21T09:51:57.216Z,99428.03
2023-05-21T09:54:24.794Z,99426.84
2023-05-21T09:56:54.732Z,99422.97
2023-05-21T09:59:21.768Z,99418.88
2023-05-21T10:01:51.955Z,99421.13
2023-05-21T10:04:19.056Z,99417.41
2023-05-21T10:06:47.887Z,99422.41
2023-05-21T10:09:18.853Z,99420.50
2023-05-21T10:11:48.147Z,99413.50
2023-05-21T10:14:22.557Z,99410.53
2023-05-21T10:16:50.381Z,99426.53
2023-05-21T10:19:17.561Z,99415.63
2023-05-21T10:21:45.797Z,99408.81
2023-05-21T10:24:13.662Z,99409.13
2023-05-21T10:26:41.678Z,99405.13
2023-05-21T10:29:09.045Z,99404.31
2023-05-21T10:31:38.719Z,99397.50
2023-05-21T10:34:06.351Z,99393.13
2023-05-21T10:36:34.310Z,99394.78
2023-05-21T10:39:02.105Z,99390.75
2023-05-21T10:41:35.836Z,99390.38
2023-05-21T10:44:28.120Z,99391.97
2023-05-21T10:47:07.166Z,99395.63
2023-05-21T10:50:01.747Z,99386.53
2023-05-21T10:52:54.843Z,99394.50
2023-05-21T10:55:44.993Z,99383.47
2023-05-21T10:58:35.814Z,99390.84
2023-05-21T11:01:03.857Z,99393.19
2023-05-21T11:03:34.106Z,99385.06
2023-05-21T11:06:03.645Z,99384.91
2023-05-21T11:08:31.828Z,99385.06
2023-05-21T11:10:59.434Z,99380.97
2023-05-21T11:13:27.464Z,99379.56
2023-05-21T11:16:05.188Z,99392.56
2023-05-21T11:18:40.492Z,99389.13
2023-05-21T11:21:11.839Z,99380.34
2023-05-21T11:23:50.526Z,99377.94
2023-05-21T11:26:24.516Z,99376.97
2023-05-21T11:29:06.947Z,99386.56
2023-05-21T11:31:41.277Z,99383.22
2023-05-21T11:34:35.029Z,99377.41
2023-05-21T11:37:36.946Z,99382.50
2023-05-21T11:40:25.708Z,99373.41
2023-05-21T11:42:54.639Z,99364.41
2023-05-21T11:45:23.503Z,99381.69
2023-05-21T11:47:51.501Z,99378.38
2023-05-21T11:50:18.644Z,99368.63
2023-05-21T11:52:45.530Z,99379.59
2023-05-21T11:55:12.622Z,99367.13
2023-05-21T11:57:44.255Z,99357.44
2023-05-21T12:00:16.105Z,99361.00
2023-05-21T12:02:48.280Z,99354.13
2023-05-21T12:05:15.185Z,99355.53
2023-05-21T12:07:42.275Z,99357.09
2023-05-21T12:10:09.381Z,99355.84
2023-05-21T12:12:49.965Z,99353.34
2023-05-21T12:15:21.426Z,99352.41
2023-05-21T12:17:52.625Z,99350.84
2023-05-21T12:20:19.984Z,99352.09
2023-05-21T12:22:48.956Z,99353.97
2023-05-21T12:25:19.824Z,99346.91
2023-05-21T12:27:47.553Z,99333.25
2023-05-21T12:30:14.800Z,99344.88
2023-05-21T12:32:46.483Z,99345.78
2023-05-21T12:35:23.213Z,99343.41
2023-05-21T12:37:53.201Z,99347.38
2023-05-21T12:40:20.053Z,99339.84
2023-05-21T12:42:46.824Z,99338.91
2023-05-21T12:45:13.897Z,99339.84
2023-05-21T12:47:40.615Z,99339.97
2023-05-21T12:50:13.968Z,99329.53
2023-05-21T12:52:43.040Z,99324.06
2023-05-21T12:55:11.793Z,99322.63
2023-05-21T12:57:39.010Z,99324.94
2023-05-21T13:00:07.316Z,99323.97
2023-05-21T13:02:42.506Z,99315.06
2023-05-21T13:05:17.303Z,99310.19
2023-05-21T13:07:47.528Z,99315.31
2023-05-21T13:10:16.859Z,99310.34
2023-05-21T13:12:44.676Z,99319.13
2023-05-21T13:15:12.093Z,99305.28
2023-05-21T13:17:38.752Z,99306.13
2023-05-21T13:20:12.544Z,99300.34
2023-05-21T13:22:43.893Z,99294.34
2023-05-21T13:25:11.747Z,99300.34
2023-05-21T13:27:39.735Z,99299.13
2023-05-21T13:30:07.386Z,99287.97
2023-05-21T13:32:34.277Z,99295.81
2023-05-21T13:35:01.006Z,99292.09
2023-05-21T13:37:27.828Z,99284.09
2023-05-21T13:39:54.614Z,99278.00
2023-05-21T13:42:21.500Z,99274.53
2023-05-21T13:44:48.477Z,99283.03
2023-05-21T13:47:15.438Z,99275.25
2023-05-21T13:49:42.808Z,99275.75
2023-05-21T13:52:09.939Z,99259.78
2023-05-21T13:54:36.825Z,99274.94
2023-05-21T13:57:03.941Z,99269.88
2023-05-21T13:59:32.699Z,99265.00
2023-05-21T14:02:00.421Z,99260.31
2023-05-21T14:04:27.303Z,99262.84
2023-05-21T14:06:54.094Z,99260.47
2023-05-21T14:09:21.430Z,99264.50
2023-05-21T14:11:48.021Z,99261.16
2023-05-21T14:14:18.945Z,99266.75
2023-05-21T14:16:49.626Z,99262.66
2023-05-21T14:19:16.522Z,99269.00
2023-05-21T14:21:43.741Z,99265.84
2023-05-21T14:24:10.335Z,99255.69
2023-05-21T14:26:41.418Z,99257.84
2023-05-21T14:29:08.235Z,99260.97
2023-05-21T14:31:34.970Z,99249.59
2023-05-21T14:34:02.973Z,99253.56
2023-05-21T14:36:29.850Z,99247.81
2023-05-21T14:38:56.594Z,99242.63
2023-05-21T14:41:27.292Z,99247.13
2023-05-21T14:43:54.555Z,99240.63
2023-05-21T14:46:21.730Z,99235.38
2023-05-21T14:48:48.335Z,99240.81
2023-05-21T14:51:15.034Z,99241.81
2023-05-21T14:53:41.604Z,99231.22
2023-05-21T14:56:08.418Z,99231.88
2023-05-21T14:58:35.005Z,99222.81
2023-05-21T15:01:02.660Z,99232.56
2023-05-21T15:03:29.555Z,99230.81
2023-05-21T15:05:56.265Z,99230.16
2023-05-21T15:08:22.941Z,99233.41
2023-05-21T15:10:49.521Z,99230.75
2023-05-21T15:13:16.102Z,99240.66
2023-05-21T15:15:42.752Z,99225.38
2023-05-21T15:18:09.401Z,99226.84
2023-05-21T15:20:36.028Z,99224.72
2023-05-21T15:25:32.211Z,99226.75
2023-05-21T15:27:58.781Z,99220.84
2023-05-21T15:30:27.264Z,99222.03
2023-05-21T15:32:54.136Z,99218.56
2023-05-21T15:35:20.850Z,99229.97
2023-05-21T15:37:47.563Z,99224.09
2023-05-21T15:40:14.192Z,99223.75
2023-05-21T15:42:40.901Z,99222.72
2023-05-21T15:45:07.956Z,99225.66
2023-05-21T15:47:34.647Z,99218.22
2023-05-21T15:50:01.277Z,99225.84
2023-05-21T15:52:27.896Z,99219.28
2023-05-21T15:54:54.800Z,99220.88
2023-05-21T15:57:21.546Z,99221.84
2023-05-21T15:59:48.275Z,99221.09
2023-05-21T16:02:14.805Z,99217.88
2023-05-21T16:04:41.458Z,99226.94
2023-05-21T16:07:08.041Z,99222.13
2023-05-21T16:09:35.434Z,99220.00
2023-05-21T16:12:02.022Z,99226.31
2023-05-21T16:14:29.390Z,99223.69
2023-05-21T16:16:56.164Z,99223.84
2023-05-21T16:19:22.913Z,99217.97
2023-05-21T16:21:49.775Z,99222.19
2023-05-21T16:24:16.356Z,99226.78
2023-05-21T16:26:43.766Z,99227.63
2023-05-21T16:29:10.303Z,99227.16
2023-05-21T16:31:38.504Z,99231.72
2023-05-21T16:34:05.120Z,99237.59
2023-05-21T16:36:31.774Z,99232.88
2023-05-21T16:38:58.324Z,99220.47
2023-05-21T16:41:25.007Z,99230.00
2023-05-21T16:43:54.260Z,99225.44
2023-05-21T16:46:21.244Z,99232.53
2023-05-21T16:48:47.871Z,99231.84
2023-05-21T16:51:14.459Z,99225.72
2023-05-21T16:53:41.218Z,99232.00
2023-05-21T16:56:07.815Z,99227.38
2023-05-21T16:58:36.102Z,99229.00
2023-05-21T17:01:03.826Z,99223.16
2023-05-21T17:03:32.515Z,99225.06
2023-05-21T17:05:59.291Z,99226.03
2023-05-21T17:08:26.081Z,99225.69
2023-05-21T17:10:52.673Z,99231.00
2023-05-21T17:13:22.630Z,99233.78
2023-05-21T17:15:51.436Z,99219.53
2023-05-21T17:18:18.265Z,99223.28
2023-05-21T17:20:44.962Z,99220.31
2023-05-21T17:23:12.303Z,99216.59
2023-05-21T17:25:39.895Z,99216.88
2023-05-21T17:28:06.811Z,99216.06
2023-05-21T17:30:33.469Z,99213.00
2023-05-21T17:33:02.232Z,99216.88
2023-05-21T17:35:29.340Z,99211.72
2023-05-21T17:37:56.033Z,99211.34
2023-05-21T17:40:24.596Z,99211.31
2023-05-21T17:42:52.389Z,99209.63
2023-05-21T17:45:19.481Z,99212.97
2023-05-21T17:47:46.512Z,99210.03
2023-05-21T17:50:13.203Z,99207.47
2023-05-21T17:52:40.005Z,99208.59
2023-05-21T17:55:07.933Z,99209.22
2023-05-21T17:57:35.993Z,99211.69
2023-05-21T18:00:04.920Z,99210.28
2023-05-21T18:02:31.605Z,99213.69
2023-05-21T18:04:58.295Z,99211.69
2023-05-21T18:07:24.853Z,99211.03
2023-05-21T18:09:51.498Z,99216.31
2023-05-21T18:12:18.044Z,99217.56
2023-05-21T18:14:44.622Z,99213.00
2023-05-21T18:17:11.244Z,99216.81
2023-05-21T18:19:37.852Z,99217.00
2023-05-21T18:22:05.159Z,99210.44
2023-05-21T18:24:31.871Z,99213.25
2023-05-21T18:26:58.569Z,99210.28
2023-05-21T18:29:25.133Z,99211.47
2023-05-21T18:31:51.856Z,99205.88
2023-05-21T18:34:18.441Z,99211.25
2023-05-21T18:36:45.087Z,99213.03
2023-05-21T18:39:11.693Z,99214.75
2023-05-21T18:41:38.812Z,99212.03
2023-05-21T18:44:06.153Z,99218.31
2023-05-21T18:46:33.145Z,99219.91
2023-05-21T18:49:00.504Z,99214.81
2023-05-21T18:51:27.291Z,99220.09
2023-05-21T18:53:53.854Z,99209.06
2023-05-21T18:56:21.833Z,99215.47
2023-05-21T18:58:48.609Z,99217.31
2023-05-21T19:01:16.108Z,99222.28
2023-05-21T19:03:42.754Z,99230.78
2023-05-21T19:06:09.585Z,99228.75
2023-05-21T19:08:36.208Z,99235.22
2023-05-21T19:11:03.061Z,99234.97
2023-05-21T19:13:29.725Z,99235.81
2023-05-21T19:15:58.329Z,99234.09
2023-05-21T19:18:30.436Z,99233.38
2023-05-21T19:20:57.398Z,99233.38
2023-05-21T19:23:24.894Z,99239.69
2023-05-21T19:25:51.595Z,99240.91
2023-05-21T19:28:18.925Z,99238.16
2023-05-21T19:30:46.350Z,99227.94
2023-05-21T19:33:13.605Z,99233.50
2023-05-21T19:35:42.010Z,99228.91
2023-05-21T19:38:11.799Z,99238.81
2023-05-21T19:40:38.673Z,99231.69
2023-05-21T19:43:05.520Z,99232.63
2023-05-21T19:45:32.164Z,99234.75
2023-05-21T19:47:59.811Z,99236.31
2023-05-21T19:50:28.564Z,99240.19
2023-05-21T19:52:57.163Z,99245.59
2023-05-21T19:55:24.782Z,99240.84
2023-05-21T19:57:51.726Z,99243.09
2023-05-21T20:00:19.234Z,99244.88
2023-05-21T20:02:46.364Z,99245.19
2023-05-21T20:05:13.217Z,99248.16
2023-05-21T20:07:40.059Z,99246.19
2023-05-21T20:10:07.521Z,99247.03
2023-05-21T20:12:34.212Z,99257.59
2023-05-21T20:15:01.008Z,99260.63
2023-05-21T20:17:28.710Z,99268.72
2023-05-21T20:19:57.234Z,99268.34
2023-05-21T20:22:23.922Z,99268.34
2023-05-21T20:24:50.680Z,99275.13
2023-05-21T20:27:19.407Z,99269.16
2023-05-21T20:29:46.280Z,99267.16
2023-05-21T20:32:13.307Z,99261.97
2023-05-21T20:34:54.420Z,99268.34
2023-05-21T20:37:27.952Z,99268.34
2023-05-21T20:39:57.784Z,99275.13
2023-05-21T20:42:28.472Z,99272.41
2023-05-21T20:44:55.592Z,99270.09
2023-05-21T20:47:23.374Z,99268.59
2023-05-21T20:49:53.747Z,99264.22
2023-05-21T20:52:20.667Z,99261.78
2023-05-21T20:54:49.014Z,99265.03
2023-05-21T20:57:16.093Z,99261.50
2023-05-21T20:59:43.095Z,99258.72
2023-05-21T21:02:12.636Z,99254.41
2023-05-21T21:04:39.790Z,99259.22
2023-05-21T21:07:08.050Z,99263.06
2023-05-21T21:09:34.607Z,99253.06
2023-05-21T21:12:06.256Z,99270.22
2023-05-21T21:14:38.082Z,99258.34
2023-05-21T21:17:04.847Z,99268.75
2023-05-21T21:19:31.521Z,99264.72
2023-05-21T21:21:58.436Z,99270.22
2023-05-21T21:24:25.067Z,99262.25
2023-05-21T21:26:51.631Z,99263.47
2023-05-21T21:29:18.181Z,99266.56
2023-05-21T21:31:47.456Z,99264.59
2023-05-21T21:34:14.323Z,99262.19
2023-05-21T21:36:40.910Z,99267.00
2023-05-21T21:39:07.575Z,99271.72
2023-05-21T21:41:34.364Z,99264.59
2023-05-21T21:44:01.108Z,99266.50
2023-05-21T21:46:27.688Z,99265.31
2023-05-21T21:48:54.289Z,99266.00
2023-05-21T21:51:23.215Z,99266.06
2023-05-21T21:53:50.171Z,99265.69
2023-05-21T21:56:16.747Z,99273.00
2023-05-21T21:58:43.448Z,99266.28
2023-05-21T22:01:10.180Z,99264.06
2023-05-21T22:03:36.926Z,99267.72
2023-05-21T22:06:03.612Z,99270.59
2023-05-21T22:08:30.267Z,99269.00
2023-05-21T22:10:56.948Z,99271.44
2023-05-21T22:13:24.551Z,99264.75
2023-05-21T22:15:51.606Z,99260.00
2023-05-21T22:18:28.209Z,99263.59
2023-05-21T22:21:03.832Z,99262.47
2023-05-21T22:23:30.525Z,99270.84
2023-05-21T22:25:57.076Z,99266.50
2023-05-21T22:28:23.625Z,99268.09
2023-05-21T22:30:50.196Z,99268.53
2023-05-21T22:33:16.961Z,99264.56
2023-05-21T22:35:43.752Z,99264.22
2023-05-21T22:38:10.365Z,99260.66
2023-05-21T22:40:38.118Z,99266.22
2023-05-21T22:43:05.018Z,99270.19
2023-05-21T22:45:31.627Z,99265.84
2023-05-21T22:48:01.668Z,99266.25
2023-05-21T22:50:29.488Z,99270.97
2023-05-21T22:52:56.158Z,99266.22
2023-05-21T22:55:22.715Z,99263.06
2023-05-21T22:57:49.310Z,99251.94
2023-05-21T23:00:19.078Z,99256.72
2023-05-21T23:02:47.172Z,99257.91
2023-05-21T23:05:13.929Z,99263.88
2023-05-21T23:07:41.372Z,99269.41
2023-05-21T23:10:09.027Z,99270.56
2023-05-21T23:12:36.563Z,99258.31
2023-05-21T23:15:04.907Z,99249.56
2023-05-21T23:17:31.745Z,99253.16
2023-05-21T23:19:59.505Z,99248.78
2023-05-21T23:22:26.283Z,99246.03
2023-05-21T23:24:54.224Z,99244.03
2023-05-21T23:27:20.961Z,99246.41
2023-05-21T23:29:47.518Z,99251.53
2023-05-21T23:32:14.144Z,99250.38
2023-05-21T23:34:42.005Z,99247.59
2023-05-21T23:37:08.685Z,99255.94
2023-05-21T23:39:36.650Z,99242.44
2023-05-21T23:42:03.534Z,99243.22
2023-05-21T23:44:30.113Z,99246.41
2023-05-21T23:46:56.748Z,99243.25
2023-05-21T23:49:23.303Z,99244.44
2023-05-21T23:51:50.799Z,99245.63
2023-05-21T23:54:17.565Z,99246.41
2023-05-21T23:56:45.394Z,99240.06
2023-05-21T23:59:12.020Z,99241.25
